Time,TemperatureF,DewpointF,PressureIn,WindDirection,WindDirectionDegrees,WindSpeedMPH,WindSpeedGustMPH,Humidity,HourlyPrecipIn,Conditions,Clouds,dailyrainin,SoftwareType,DateUTC
2013-06-11 00:02:00,47.5,22.5,25.84,North,0,10.1,10.1,37,0.00,,---,0.00,VWS V14.01,2013-06-11 07:02:00,
2013-06-11 00:07:00,47.3,22.4,25.84,North,0,10.1,10.1,37,0.00,,---,0.00,VWS V14.01,2013-06-11 07:07:00,
2013-06-11 00:12:00,47.1,22.2,25.84,North,0,10.1,10.1,37,0.00,,---,0.00,VWS V14.01,2013-06-11 07:12:00,
2013-06-11 00:17:00,46.9,22.7,25.84,North,0,10.1,10.1,38,0.00,,---,0.00,VWS V14.01,2013-06-11 07:17:00,
2013-06-11 00:22:00,46.9,22.0,25.84,North,0,10.1,10.1,37,0.00,,---,0.00,VWS V14.01,2013-06-11 07:22:00,
2013-06-11 00:27:00,47.1,22.2,25.84,North,0,10.1,10.1,37,0.00,,---,0.00,VWS V14.01,2013-06-11 07:27:00,
2013-06-11 00:32:00,47.1,22.2,25.84,North,0,10.1,10.1,37,0.00,,---,0.00,VWS V14.01,2013-06-11 07:32:00,
2013-06-11 00:37:00,46.9,22.0,25.84,North,0,10.1,10.1,37,0.00,,---,0.00,VWS V14.01,2013-06-11 07:37:00,
2013-06-11 00:42:00,47.3,23.0,25.84,North,0,10.1,10.1,38,0.00,,---,0.00,VWS V14.01,2013-06-11 07:42:00,
2013-06-11 00:47:00,47.3,22.4,25.84,North,0,10.1,10.1,37,0.00,,---,0.00,VWS V14.01,2013-06-11 07:47:00,
2013-06-11 00:52:00,47.1,22.2,25.84,North,0,10.1,10.1,37,0.00,,---,0.00,VWS V14.01,2013-06-11 07:52:00,
2013-06-11 00:57:00,47.3,23.0,25.81,North,0,10.1,10.1,38,0.00,,---,0.00,VWS V14.01,2013-06-11 07:57:00,
2013-06-11 01:02:00,47.3,22.4,25.81,North,0,10.1,10.1,37,0.00,,---,0.00,VWS V14.01,2013-06-11 08:02:00,
2013-06-11 01:07:00,47.1,22.8,25.81,North,0,10.1,10.1,38,0.00,,---,0.00,VWS V14.01,2013-06-11 08:07:00,
2013-06-11 01:12:00,46.4,21.6,25.84,North,0,10.1,10.1,37,0.00,,---,0.00,VWS V14.01,2013-06-11 08:12:00,
2013-06-11 01:17:00,46.0,21.9,25.84,North,0,10.1,10.1,38,0.00,,---,0.00,VWS V14.01,2013-06-11 08:17:00,
2013-06-11 01:22:00,46.0,21.9,25.84,North,0,10.1,10.1,38,0.00,,---,0.00,VWS V14.01,2013-06-11 08:22:00,
2013-06-11 01:27:00,46.4,22.2,25.81,North,0,10.1,10.1,38,0.00,,---,0.00,VWS V14.01,2013-06-11 08:27:00,
2013-06-11 01:32:00,46.0,21.9,25.81,North,0,10.1,10.1,38,0.00,,---,0.00,VWS V14.01,2013-06-11 08:32:00,
2013-06-11 01:37:00,45.3,21.2,25.81,North,0,10.1,10.1,38,0.00,,---,0.00,VWS V14.01,2013-06-11 08:37:00,
2013-06-11 01:42:00,44.8,21.4,25.81,North,0,10.1,10.1,39,0.00,,---,0.00,VWS V14.01,2013-06-11 08:42:00,
2013-06-11 01:47:00,44.1,20.7,25.81,North,0,10.1,10.1,39,0.00,,---,0.00,VWS V14.01,2013-06-11 08:47:00,
2013-06-11 01:52:00,43.7,22.1,25.81,North,0,10.1,10.1,42,0.00,,---,0.00,VWS V14.01,2013-06-11 08:52:00,
2013-06-11 01:57:00,44.4,21.6,25.81,North,0,10.1,10.1,40,0.00,,---,0.00,VWS V14.01,2013-06-11 08:57:00,
2013-06-11 02:02:00,44.8,22.0,25.81,North,0,10.1,10.1,40,0.00,,---,0.00,VWS V14.01,2013-06-11 09:02:00,
2013-06-11 02:07:00,44.4,21.6,25.81,North,0,10.1,10.1,40,0.00,,---,0.00,VWS V14.01,2013-06-11 09:07:00,
2013-06-11 02:12:00,44.2,21.5,25.81,North,0,10.1,10.1,40,0.00,,---,0.00,VWS V14.01,2013-06-11 09:12:00,
2013-06-11 02:17:00,44.2,21.5,25.81,North,0,10.1,10.1,40,0.00,,---,0.00,VWS V14.01,2013-06-11 09:17:00,
2013-06-11 02:22:00,44.2,22.0,25.81,North,0,10.1,10.1,41,0.00,,---,0.00,VWS V14.01,2013-06-11 09:22:00,
2013-06-11 02:27:00,44.8,22.0,25.81,North,0,10.1,10.1,40,0.00,,---,0.00,VWS V14.01,2013-06-11 09:27:00,
2013-06-11 02:32:00,44.6,22.4,25.81,North,0,10.1,10.1,41,0.00,,---,0.00,VWS V14.01,2013-06-11 09:32:00,
2013-06-11 02:37:00,43.9,21.7,25.81,North,0,10.1,10.1,41,0.00,,---,0.00,VWS V14.01,2013-06-11 09:37:00,
2013-06-11 02:42:00,43.3,20.6,25.81,North,0,10.1,10.1,40,0.00,,---,0.00,VWS V14.01,2013-06-11 09:42:00,
2013-06-11 02:47:00,43.0,20.9,25.81,North,0,10.1,10.1,41,0.00,,---,0.00,VWS V14.01,2013-06-11 09:47:00,
2013-06-11 02:52:00,43.3,21.8,25.81,North,0,10.1,10.1,42,0.00,,---,0.00,VWS V14.01,2013-06-11 09:52:00,
2013-06-11 02:57:00,43.0,21.5,25.81,North,0,10.1,10.1,42,0.00,,---,0.00,VWS V14.01,2013-06-11 09:57:00,
2013-06-11 03:02:00,42.6,22.2,25.81,North,0,10.1,10.1,44,0.00,,---,0.00,VWS V14.01,2013-06-11 10:02:00,
2013-06-11 03:07:00,42.8,21.9,25.81,North,0,10.1,10.1,43,0.00,,---,0.00,VWS V14.01,2013-06-11 10:07:00,
2013-06-11 03:12:00,42.8,21.9,25.81,North,0,10.1,10.1,43,0.00,,---,0.00,VWS V14.01,2013-06-11 10:12:00,
2013-06-11 03:17:00,42.4,21.5,25.81,North,0,10.1,10.1,43,0.00,,---,0.00,VWS V14.01,2013-06-11 10:17:00,
2013-06-11 03:22:00,42.4,21.5,25.81,North,0,10.1,10.1,43,0.00,,---,0.00,VWS V14.01,2013-06-11 10:22:00,
2013-06-11 03:27:00,41.7,21.4,25.81,North,0,10.1,10.1,44,0.00,,---,0.00,VWS V14.01,2013-06-11 10:27:00,
2013-06-11 03:32:00,41.5,21.3,25.81,North,0,10.1,10.1,44,0.00,,---,0.00,VWS V14.01,2013-06-11 10:32:00,
2013-06-11 03:37:00,41.4,21.6,25.81,North,0,10.1,10.1,45,0.00,,---,0.00,VWS V14.01,2013-06-11 10:37:00,
2013-06-11 03:42:00,41.4,21.1,25.81,North,0,10.1,10.1,44,0.00,,---,0.00,VWS V14.01,2013-06-11 10:42:00,
2013-06-11 03:47:00,41.4,22.1,25.81,North,0,10.1,10.1,46,0.00,,---,0.00,VWS V14.01,2013-06-11 10:47:00,
2013-06-11 03:52:00,41.9,23.7,25.81,North,0,10.1,10.1,48,0.00,,---,0.00,VWS V14.01,2013-06-11 10:52:00,
2013-06-11 03:57:00,41.7,22.5,25.81,North,0,10.1,10.1,46,0.00,,---,0.00,VWS V14.01,2013-06-11 10:57:00,
2013-06-11 04:02:00,41.9,22.6,25.81,North,0,10.1,10.1,46,0.00,,---,0.00,VWS V14.01,2013-06-11 11:02:00,
2013-06-11 04:07:00,42.4,23.1,25.81,North,0,10.1,10.1,46,0.00,,---,0.00,VWS V14.01,2013-06-11 11:07:00,
2013-06-11 04:12:00,42.8,23.5,25.78,North,0,10.1,10.1,46,0.00,,---,0.00,VWS V14.01,2013-06-11 11:12:00,
2013-06-11 04:17:00,43.7,25.3,25.78,North,0,10.1,10.1,48,0.00,,---,0.00,VWS V14.01,2013-06-11 11:17:00,
2013-06-11 04:22:00,43.9,24.5,25.78,North,0,10.1,10.1,46,0.00,,---,0.00,VWS V14.01,2013-06-11 11:22:00,
2013-06-11 04:27:00,43.7,23.8,25.78,North,0,10.1,10.1,45,0.00,,---,0.00,VWS V14.01,2013-06-11 11:27:00,
2013-06-11 04:32:00,43.9,23.9,25.78,North,0,10.1,10.1,45,0.00,,---,0.00,VWS V14.01,2013-06-11 11:32:00,
2013-06-11 04:37:00,43.9,23.9,25.78,North,0,10.1,10.1,45,0.00,,---,0.00,VWS V14.01,2013-06-11 11:37:00,
2013-06-11 04:42:00,44.1,24.6,25.78,North,0,10.1,10.1,46,0.00,,---,0.00,VWS V14.01,2013-06-11 11:42:00,
2013-06-11 04:47:00,43.5,23.6,25.78,North,0,10.1,10.1,45,0.00,,---,0.00,VWS V14.01,2013-06-11 11:47:00,
2013-06-11 04:52:00,42.8,23.5,25.78,North,0,10.1,10.1,46,0.00,,---,0.00,VWS V14.01,2013-06-11 11:52:00,
2013-06-11 04:57:00,42.4,23.6,25.78,North,0,10.1,10.1,47,0.00,,---,0.00,VWS V14.01,2013-06-11 11:57:00,
2013-06-11 05:02:00,42.4,23.6,25.78,North,0,10.1,10.1,47,0.00,,---,0.00,VWS V14.01,2013-06-11 12:02:00,
2013-06-11 05:07:00,43.5,25.1,25.78,North,0,10.1,10.1,48,0.00,,---,0.00,VWS V14.01,2013-06-11 12:07:00,
2013-06-11 05:12:00,43.3,25.5,25.78,North,0,10.1,10.1,49,0.00,,---,0.00,VWS V14.01,2013-06-11 12:12:00,
2013-06-11 05:17:00,43.7,25.8,25.78,North,0,10.1,10.1,49,0.00,,---,0.00,VWS V14.01,2013-06-11 12:17:00,
2013-06-11 05:22:00,43.3,25.0,25.78,North,0,10.1,10.1,48,0.00,,---,0.00,VWS V14.01,2013-06-11 12:22:00,
2013-06-11 05:27:00,44.4,27.0,25.78,North,0,10.1,10.1,50,0.00,,---,0.00,VWS V14.01,2013-06-11 12:27:00,
2013-06-11 05:32:00,45.1,27.1,25.78,North,0,10.1,10.1,49,0.00,,---,0.00,VWS V14.01,2013-06-11 12:32:00,
2013-06-11 05:37:00,45.3,26.8,25.78,North,0,10.1,10.1,48,0.00,,---,0.00,VWS V14.01,2013-06-11 12:37:00,
2013-06-11 05:42:00,45.1,26.1,25.78,North,0,10.1,10.1,47,0.00,,---,0.00,VWS V14.01,2013-06-11 12:42:00,
2013-06-11 05:47:00,44.8,26.3,25.78,North,0,10.1,10.1,48,0.00,,---,0.00,VWS V14.01,2013-06-11 12:47:00,
2013-06-11 05:52:00,45.3,26.8,25.78,North,0,10.1,10.1,48,0.00,,---,0.00,VWS V14.01,2013-06-11 12:52:00,
2013-06-11 05:57:00,45.7,26.6,25.78,North,0,10.1,10.1,47,0.00,,---,0.00,VWS V14.01,2013-06-11 12:57:00,
2013-06-11 06:02:00,45.9,25.7,25.78,North,0,10.1,10.1,45,0.00,,---,0.00,VWS V14.01,2013-06-11 13:02:00,
2013-06-11 06:07:00,46.2,26.6,25.78,North,0,10.1,10.1,46,0.00,,---,0.00,VWS V14.01,2013-06-11 13:07:00,
2013-06-11 06:12:00,46.8,26.6,25.78,North,0,10.1,10.1,45,0.00,,---,0.00,VWS V14.01,2013-06-11 13:12:00,
2013-06-11 06:17:00,47.5,27.2,25.78,North,0,10.1,10.1,45,0.00,,---,0.00,VWS V14.01,2013-06-11 13:17:00,
2013-06-11 06:22:00,48.6,28.2,25.78,North,0,10.1,10.1,45,0.00,,---,0.00,VWS V14.01,2013-06-11 13:22:00,
2013-06-11 06:27:00,49.8,28.8,25.78,North,0,10.1,10.1,44,0.00,,---,0.00,VWS V14.01,2013-06-11 13:27:00,
2013-06-11 06:32:00,50.9,29.2,25.78,North,0,10.1,10.1,43,0.00,,---,0.00,VWS V14.01,2013-06-11 13:32:00,
2013-06-11 06:37:00,52.2,28.6,25.78,North,0,10.1,10.1,40,0.00,,---,0.00,VWS V14.01,2013-06-11 13:37:00,
2013-06-11 06:42:00,53.4,29.1,25.78,North,0,10.1,10.1,39,0.00,,---,0.00,VWS V14.01,2013-06-11 13:42:00,
2013-06-11 06:47:00,54.3,29.3,25.78,North,0,10.1,10.1,38,0.00,,---,0.00,VWS V14.01,2013-06-11 13:47:00,
2013-06-11 06:52:00,55.6,29.7,25.78,North,0,10.1,10.1,37,0.00,,---,0.00,VWS V14.01,2013-06-11 13:52:00,
2013-06-11 06:57:00,56.5,30.5,25.81,North,0,10.1,10.1,37,0.00,,---,0.00,VWS V14.01,2013-06-11 13:57:00,
2013-06-11 07:02:00,56.3,30.4,25.81,North,0,10.1,10.1,37,0.00,,---,0.00,VWS V14.01,2013-06-11 14:02:00,
2013-06-11 07:07:00,54.5,28.8,25.81,North,0,10.1,10.1,37,0.00,,---,0.00,VWS V14.01,2013-06-11 14:07:00,
2013-06-11 07:12:00,55.2,29.4,25.78,North,0,10.1,10.1,37,0.00,,---,0.00,VWS V14.01,2013-06-11 14:12:00,
2013-06-11 07:17:00,55.9,29.4,25.78,North,0,10.1,10.1,36,0.00,,---,0.00,VWS V14.01,2013-06-11 14:17:00,
2013-06-11 07:22:00,55.8,29.2,25.78,North,0,10.1,10.1,36,0.00,,---,0.00,VWS V14.01,2013-06-11 14:22:00,
2013-06-11 07:27:00,57.2,30.5,25.81,North,0,10.1,10.1,36,0.00,,---,0.00,VWS V14.01,2013-06-11 14:27:00,
2013-06-11 07:32:00,57.6,30.8,25.81,North,0,10.1,10.1,36,0.00,,---,0.00,VWS V14.01,2013-06-11 14:32:00,
2013-06-11 07:37:00,59.0,31.4,25.81,North,0,10.1,10.1,35,0.00,,---,0.00,VWS V14.01,2013-06-11 14:37:00,
2013-06-11 07:42:00,59.7,32.0,25.78,North,0,10.1,10.1,35,0.00,,---,0.00,VWS V14.01,2013-06-11 14:42:00,
2013-06-11 07:47:00,61.0,32.4,25.78,North,0,10.1,10.1,34,0.00,,---,0.00,VWS V14.01,2013-06-11 14:47:00,
2013-06-11 07:52:00,61.2,32.6,25.78,North,0,10.1,10.1,34,0.00,,---,0.00,VWS V14.01,2013-06-11 14:52:00,
2013-06-11 07:57:00,61.7,33.1,25.81,North,0,10.1,10.1,34,0.00,,---,0.00,VWS V14.01,2013-06-11 14:57:00,
2013-06-11 08:02:00,61.7,33.1,25.81,North,0,10.1,10.1,34,0.00,,---,0.00,VWS V14.01,2013-06-11 15:02:00,
2013-06-11 08:07:00,61.7,33.1,25.81,North,0,10.1,10.1,34,0.00,,---,0.00,VWS V14.01,2013-06-11 15:07:00,
2013-06-11 08:12:00,61.7,33.1,25.78,North,0,10.1,10.1,34,0.00,,---,0.00,VWS V14.01,2013-06-11 15:12:00,
2013-06-11 08:17:00,62.4,29.8,25.78,North,0,10.1,10.1,29,0.00,,---,0.00,VWS V14.01,2013-06-11 15:17:00,
2013-06-11 08:22:00,61.3,28.8,25.78,North,0,10.1,10.1,29,0.00,,---,0.00,VWS V14.01,2013-06-11 15:22:00,
2013-06-11 08:27:00,60.6,29.0,25.81,North,0,10.1,10.1,30,0.00,,---,0.00,VWS V14.01,2013-06-11 15:27:00,
2013-06-11 08:32:00,60.1,28.6,25.81,North,0,10.1,10.1,30,0.00,,---,0.00,VWS V14.01,2013-06-11 15:32:00,
2013-06-11 08:37:00,59.9,28.4,25.81,North,0,10.1,10.1,30,0.00,,---,0.00,VWS V14.01,2013-06-11 15:37:00,
2013-06-11 08:42:00,59.9,29.2,25.81,North,0,10.1,10.1,31,0.00,,---,0.00,VWS V14.01,2013-06-11 15:42:00,
2013-06-11 08:47:00,59.4,29.5,25.81,North,0,10.1,10.1,32,0.00,,---,0.00,VWS V14.01,2013-06-11 15:47:00,
2013-06-11 08:52:00,60.1,29.4,25.81,North,0,10.1,10.1,31,0.00,,---,0.00,VWS V14.01,2013-06-11 15:52:00,
2013-06-11 08:57:00,61.0,30.2,25.81,North,0,10.1,10.1,31,0.00,,---,0.00,VWS V14.01,2013-06-11 15:57:00,
2013-06-11 09:02:00,61.0,29.4,25.81,North,0,10.1,10.1,30,0.00,,---,0.00,VWS V14.01,2013-06-11 16:02:00,
2013-06-11 09:07:00,60.3,28.7,25.81,North,0,10.1,10.1,30,0.00,,---,0.00,VWS V14.01,2013-06-11 16:07:00,
2013-06-11 09:12:00,60.6,30.6,25.81,North,0,10.1,10.1,32,0.00,,---,0.00,VWS V14.01,2013-06-11 16:12:00,
2013-06-11 09:17:00,61.3,29.7,25.81,North,0,10.1,10.1,30,0.00,,---,0.00,VWS V14.01,2013-06-11 16:17:00,
2013-06-11 09:22:00,61.3,29.7,25.81,North,0,10.1,10.1,30,0.00,,---,0.00,VWS V14.01,2013-06-11 16:22:00,
2013-06-11 09:27:00,60.6,29.8,25.81,North,0,10.1,10.1,31,0.00,,---,0.00,VWS V14.01,2013-06-11 16:27:00,
2013-06-11 09:32:00,60.3,28.7,25.81,North,0,10.1,10.1,30,0.00,,---,0.00,VWS V14.01,2013-06-11 16:32:00,
2013-06-11 09:37:00,60.3,29.5,25.81,North,0,10.1,10.1,31,0.00,,---,0.00,VWS V14.01,2013-06-11 16:37:00,
2013-06-11 09:42:00,61.3,29.7,25.81,North,0,10.1,10.1,30,0.00,,---,0.00,VWS V14.01,2013-06-11 16:42:00,
2013-06-11 09:47:00,61.0,28.5,25.81,North,0,10.1,10.1,29,0.00,,---,0.00,VWS V14.01,2013-06-11 16:47:00,
2013-06-11 09:52:00,61.9,29.3,25.81,North,0,10.1,10.1,29,0.00,,---,0.00,VWS V14.01,2013-06-11 16:52:00,
2013-06-11 09:57:00,62.2,29.6,25.81,North,0,10.1,10.1,29,0.00,,---,0.00,VWS V14.01,2013-06-11 16:57:00,
2013-06-11 10:02:00,62.2,29.6,25.81,North,0,10.1,10.1,29,0.00,,---,0.00,VWS V14.01,2013-06-11 17:02:00,
2013-06-11 10:07:00,62.4,29.8,25.81,North,0,10.1,10.1,29,0.00,,---,0.00,VWS V14.01,2013-06-11 17:07:00,
2013-06-11 10:12:00,62.6,29.1,25.81,North,0,10.1,10.1,28,0.00,,---,0.00,VWS V14.01,2013-06-11 17:12:00,
2013-06-11 10:17:00,63.0,29.4,25.81,North,0,10.1,10.1,28,0.00,,---,0.00,VWS V14.01,2013-06-11 17:17:00,
2013-06-11 10:22:00,62.6,28.2,25.81,North,0,10.1,10.1,27,0.00,,---,0.00,VWS V14.01,2013-06-11 17:22:00,
2013-06-11 10:27:00,62.2,28.8,25.81,North,0,10.1,10.1,28,0.00,,---,0.00,VWS V14.01,2013-06-11 17:27:00,
2013-06-11 10:32:00,62.2,28.8,25.81,North,0,10.1,10.1,28,0.00,,---,0.00,VWS V14.01,2013-06-11 17:32:00,
2013-06-11 10:37:00,62.4,28.9,25.81,North,0,10.1,10.1,28,0.00,,---,0.00,VWS V14.01,2013-06-11 17:37:00,
2013-06-11 10:42:00,61.5,28.1,25.81,North,0,10.1,10.1,28,0.00,,---,0.00,VWS V14.01,2013-06-11 17:42:00,
2013-06-11 10:47:00,62.6,29.1,25.81,North,0,10.1,10.1,28,0.00,,---,0.00,VWS V14.01,2013-06-11 17:47:00,
2013-06-11 10:52:00,63.0,28.5,25.81,North,0,10.1,10.1,27,0.00,,---,0.00,VWS V14.01,2013-06-11 17:52:00,
2013-06-11 10:57:00,63.1,28.6,25.81,North,0,10.1,10.1,27,0.00,,---,0.00,VWS V14.01,2013-06-11 17:57:00,
2013-06-11 11:02:00,63.3,28.8,25.81,North,0,10.1,10.1,27,0.00,,---,0.00,VWS V14.01,2013-06-11 18:02:00,
2013-06-11 11:07:00,63.5,29.0,25.81,North,0,10.1,10.1,27,0.00,,---,0.00,VWS V14.01,2013-06-11 18:07:00,
2013-06-11 11:12:00,63.9,29.3,25.81,North,0,10.1,10.1,27,0.00,,---,0.00,VWS V14.01,2013-06-11 18:12:00,
2013-06-11 11:17:00,63.1,28.6,25.81,North,0,10.1,10.1,27,0.00,,---,0.00,VWS V14.01,2013-06-11 18:17:00,
2013-06-11 11:22:00,63.5,29.0,25.81,North,0,10.1,10.1,27,0.00,,---,0.00,VWS V14.01,2013-06-11 18:22:00,
2013-06-11 11:27:00,63.5,29.0,25.81,North,0,10.1,10.1,27,0.00,,---,0.00,VWS V14.01,2013-06-11 18:27:00,
2013-06-11 11:32:00,63.0,28.5,25.81,North,0,10.1,10.1,27,0.00,,---,0.00,VWS V14.01,2013-06-11 18:32:00,
2013-06-11 11:37:00,63.1,27.7,25.81,North,0,10.1,10.1,26,0.00,,---,0.00,VWS V14.01,2013-06-11 18:37:00,
2013-06-11 11:42:00,62.6,27.3,25.84,North,0,10.1,10.1,26,0.00,,---,0.00,VWS V14.01,2013-06-11 18:42:00,
2013-06-11 11:47:00,62.1,27.7,25.84,North,0,10.1,10.1,27,0.00,,---,0.00,VWS V14.01,2013-06-11 18:47:00,
2013-06-11 11:52:00,62.6,28.2,25.84,North,0,10.1,10.1,27,0.00,,---,0.00,VWS V14.01,2013-06-11 18:52:00,
2013-06-11 11:57:00,62.2,27.9,25.84,North,0,10.1,10.1,27,0.00,,---,0.00,VWS V14.01,2013-06-11 18:57:00,
2013-06-11 12:02:00,62.6,28.2,25.84,North,0,10.1,10.1,27,0.00,,---,0.00,VWS V14.01,2013-06-11 19:02:00,
2013-06-11 12:07:00,62.6,28.2,25.84,North,0,10.1,10.1,27,0.00,,---,0.00,VWS V14.01,2013-06-11 19:07:00,
2013-06-11 12:12:00,61.7,27.4,25.84,North,0,10.1,10.1,27,0.00,,---,0.00,VWS V14.01,2013-06-11 19:12:00,
2013-06-11 12:17:00,61.7,27.4,25.84,North,0,10.1,10.1,27,0.00,,---,0.00,VWS V14.01,2013-06-11 19:17:00,
2013-06-11 12:22:00,61.9,27.6,25.84,North,0,10.1,10.1,27,0.00,,---,0.00,VWS V14.01,2013-06-11 19:22:00,
2013-06-11 12:27:00,61.0,26.8,25.84,North,0,10.1,10.1,27,0.00,,---,0.00,VWS V14.01,2013-06-11 19:27:00,
2013-06-11 12:32:00,61.3,27.1,25.84,North,0,10.1,10.1,27,0.00,,---,0.00,VWS V14.01,2013-06-11 19:32:00,
2013-06-11 12:37:00,62.1,27.7,25.84,North,0,10.1,10.1,27,0.00,,---,0.00,VWS V14.01,2013-06-11 19:37:00,
2013-06-11 12:42:00,62.1,27.7,25.84,North,0,10.1,10.1,27,0.00,,---,0.00,VWS V14.01,2013-06-11 19:42:00,
2013-06-11 12:47:00,61.9,27.6,25.84,North,0,10.1,10.1,27,0.00,,---,0.00,VWS V14.01,2013-06-11 19:47:00,
2013-06-11 12:52:00,61.9,27.6,25.84,North,0,10.1,10.1,27,0.00,,---,0.00,VWS V14.01,2013-06-11 19:52:00,
2013-06-11 12:57:00,60.6,25.6,25.84,North,0,10.1,10.1,26,0.00,,---,0.00,VWS V14.01,2013-06-11 19:57:00,
2013-06-11 13:02:00,61.2,26.0,25.84,North,0,10.1,10.1,26,0.00,,---,0.00,VWS V14.01,2013-06-11 20:02:00,
2013-06-11 13:07:00,61.5,26.3,25.84,North,0,10.1,10.1,26,0.00,,---,0.00,VWS V14.01,2013-06-11 20:07:00,
2013-06-11 13:12:00,61.5,26.3,25.84,North,0,10.1,10.1,26,0.00,,---,0.00,VWS V14.01,2013-06-11 20:12:00,
2013-06-11 13:17:00,60.8,25.7,25.84,North,0,10.1,10.1,26,0.00,,---,0.00,VWS V14.01,2013-06-11 20:17:00,
2013-06-11 13:22:00,61.3,26.2,25.84,North,0,10.1,10.1,26,0.00,,---,0.00,VWS V14.01,2013-06-11 20:22:00,
2013-06-11 13:27:00,61.9,25.7,25.84,North,0,10.1,10.1,25,0.00,,---,0.00,VWS V14.01,2013-06-11 20:27:00,
2013-06-11 13:32:00,62.1,25.9,25.84,North,0,10.1,10.1,25,0.00,,---,0.00,VWS V14.01,2013-06-11 20:32:00,
2013-06-11 13:37:00,61.7,25.5,25.84,North,0,10.1,10.1,25,0.00,,---,0.00,VWS V14.01,2013-06-11 20:37:00,
2013-06-11 13:42:00,61.3,25.2,25.84,North,0,10.1,10.1,25,0.00,,---,0.00,VWS V14.01,2013-06-11 20:42:00,
2013-06-11 13:47:00,61.2,25.1,25.84,North,0,10.1,10.1,25,0.00,,---,0.00,VWS V14.01,2013-06-11 20:47:00,
2013-06-11 13:52:00,61.0,24.9,25.84,North,0,10.1,10.1,25,0.00,,---,0.00,VWS V14.01,2013-06-11 20:52:00,
2013-06-11 13:57:00,61.2,24.1,25.87,North,0,10.1,10.1,24,0.00,,---,0.00,VWS V14.01,2013-06-11 20:57:00,
2013-06-11 14:02:00,60.6,23.6,25.87,North,0,10.1,10.1,24,0.00,,---,0.00,VWS V14.01,2013-06-11 21:02:00,
2013-06-11 14:07:00,61.5,24.4,25.87,North,0,10.1,10.1,24,0.00,,---,0.00,VWS V14.01,2013-06-11 21:07:00,
2013-06-11 14:12:00,61.2,24.1,25.84,North,0,10.1,10.1,24,0.00,,---,0.00,VWS V14.01,2013-06-11 21:12:00,
2013-06-11 14:17:00,61.2,24.1,25.84,North,0,10.1,10.1,24,0.00,,---,0.00,VWS V14.01,2013-06-11 21:17:00,
2013-06-11 14:22:00,62.1,24.9,25.84,North,0,10.1,10.1,24,0.00,,---,0.00,VWS V14.01,2013-06-11 21:22:00,
2013-06-11 14:27:00,61.2,24.1,25.87,North,0,10.1,10.1,24,0.00,,---,0.00,VWS V14.01,2013-06-11 21:27:00,
2013-06-11 14:32:00,61.5,24.4,25.87,North,0,10.1,10.1,24,0.00,,---,0.00,VWS V14.01,2013-06-11 21:32:00,
2013-06-11 14:37:00,62.2,25.0,25.87,North,0,10.1,10.1,24,0.00,,---,0.00,VWS V14.01,2013-06-11 21:37:00,
2013-06-11 14:42:00,61.9,24.7,25.87,North,0,10.1,10.1,24,0.00,,---,0.00,VWS V14.01,2013-06-11 21:42:00,
2013-06-11 14:47:00,62.1,21.7,25.87,North,0,10.1,10.1,21,0.00,,---,0.00,VWS V14.01,2013-06-11 21:47:00,
2013-06-11 14:52:00,61.7,21.4,25.87,North,0,10.1,10.1,21,0.00,,---,0.00,VWS V14.01,2013-06-11 21:52:00,
2013-06-11 14:57:00,61.9,21.5,25.87,North,0,10.1,10.1,21,0.00,,---,0.00,VWS V14.01,2013-06-11 21:57:00,
2013-06-11 15:02:00,60.8,20.6,25.87,North,0,10.1,10.1,21,0.00,,---,0.00,VWS V14.01,2013-06-11 22:02:00,
2013-06-11 15:07:00,61.2,20.9,25.87,North,0,10.1,10.1,21,0.00,,---,0.00,VWS V14.01,2013-06-11 22:07:00,
2013-06-11 15:12:00,61.3,18.8,25.87,North,0,10.1,10.1,19,0.00,,---,0.00,VWS V14.01,2013-06-11 22:12:00,
2013-06-11 15:17:00,61.0,18.5,25.87,North,0,10.1,10.1,19,0.00,,---,0.00,VWS V14.01,2013-06-11 22:17:00,
2013-06-11 15:22:00,60.3,17.9,25.87,North,0,10.1,10.1,19,0.00,,---,0.00,VWS V14.01,2013-06-11 22:22:00,
2013-06-11 15:27:00,61.0,18.5,25.87,North,0,10.1,10.1,19,0.00,,---,0.00,VWS V14.01,2013-06-11 22:27:00,
2013-06-11 15:32:00,61.0,18.5,25.87,North,0,10.1,10.1,19,0.00,,---,0.00,VWS V14.01,2013-06-11 22:32:00,
2013-06-11 15:37:00,61.2,18.6,25.87,North,0,10.1,10.1,19,0.00,,---,0.00,VWS V14.01,2013-06-11 22:37:00,
2013-06-11 15:42:00,61.2,18.6,25.87,North,0,10.1,10.1,19,0.00,,---,0.00,VWS V14.01,2013-06-11 22:42:00,
2013-06-11 15:47:00,61.3,18.8,25.87,North,0,10.1,10.1,19,0.00,,---,0.00,VWS V14.01,2013-06-11 22:47:00,
2013-06-11 15:52:00,61.3,18.8,25.87,North,0,10.1,10.1,19,0.00,,---,0.00,VWS V14.01,2013-06-11 22:52:00,
2013-06-11 15:57:00,61.3,14.8,25.87,North,0,10.1,10.1,16,0.00,,---,0.00,VWS V14.01,2013-06-11 22:57:00,
2013-06-11 16:02:00,61.0,14.5,25.87,North,0,10.1,10.1,16,0.00,,---,0.00,VWS V14.01,2013-06-11 23:02:00,
2013-06-11 16:07:00,61.5,14.9,25.87,North,0,10.1,10.1,16,0.00,,---,0.00,VWS V14.01,2013-06-11 23:07:00,
2013-06-11 16:12:00,60.6,15.6,25.87,North,0,10.1,10.1,17,0.00,,---,0.00,VWS V14.01,2013-06-11 23:12:00,
2013-06-11 16:17:00,61.2,14.6,25.87,North,0,10.1,10.1,16,0.00,,---,0.00,VWS V14.01,2013-06-11 23:17:00,
2013-06-11 16:22:00,60.4,15.4,25.87,North,0,10.1,10.1,17,0.00,,---,0.00,VWS V14.01,2013-06-11 23:22:00,
2013-06-11 16:27:00,61.7,15.1,25.87,North,0,10.1,10.1,16,0.00,,---,0.00,VWS V14.01,2013-06-11 23:27:00,
2013-06-11 16:32:00,66.0,17.1,25.87,North,0,10.1,10.1,15,0.00,,---,0.00,VWS V14.01,2013-06-11 23:32:00,
2013-06-11 16:37:00,66.6,12.4,25.87,North,0,10.1,10.1,12,0.00,,---,0.00,VWS V14.01,2013-06-11 23:37:00,
2013-06-11 16:42:00,66.7,17.6,25.90,North,0,10.1,10.1,15,0.00,,---,0.00,VWS V14.01,2013-06-11 23:42:00,
2013-06-11 16:47:00,68.4,19.0,25.90,North,0,10.1,10.1,15,0.00,,---,0.00,VWS V14.01,2013-06-11 23:47:00,
2013-06-11 16:52:00,68.9,14.2,25.90,North,0,10.1,10.1,12,0.00,,---,0.00,VWS V14.01,2013-06-11 23:52:00,
2013-06-11 16:57:00,68.5,13.9,25.90,North,0,10.1,10.1,12,0.00,,---,0.00,VWS V14.01,2013-06-11 23:57:00,
2013-06-11 17:02:00,69.4,14.6,25.90,North,0,10.1,10.1,12,0.00,,---,0.00,VWS V14.01,2013-06-12 00:02:00,
2013-06-11 17:07:00,70.2,18.8,25.90,North,0,10.1,10.1,14,0.00,,---,0.00,VWS V14.01,2013-06-12 00:07:00,
2013-06-11 17:12:00,69.1,14.4,25.90,North,0,10.1,10.1,12,0.00,,---,0.00,VWS V14.01,2013-06-12 00:12:00,
2013-06-11 17:17:00,70.5,19.1,25.90,North,0,10.1,10.1,14,0.00,,---,0.00,VWS V14.01,2013-06-12 00:17:00,
2013-06-11 17:22:00,71.1,15.9,25.90,North,0,10.1,10.1,12,0.00,,---,0.00,VWS V14.01,2013-06-12 00:22:00,
2013-06-11 17:27:00,71.2,16.1,25.90,North,0,10.1,10.1,12,0.00,,---,0.00,VWS V14.01,2013-06-12 00:27:00,
2013-06-11 17:32:00,70.7,15.6,25.90,North,0,10.1,10.1,12,0.00,,---,0.00,VWS V14.01,2013-06-12 00:32:00,
2013-06-11 17:37:00,71.2,16.1,25.90,North,0,10.1,10.1,12,0.00,,---,0.00,VWS V14.01,2013-06-12 00:37:00,
2013-06-11 17:42:00,70.5,15.5,25.90,North,0,10.1,10.1,12,0.00,,---,0.00,VWS V14.01,2013-06-12 00:42:00,
2013-06-11 17:47:00,71.1,15.9,25.90,North,0,10.1,10.1,12,0.00,,---,0.00,VWS V14.01,2013-06-12 00:47:00,
2013-06-11 17:52:00,70.7,15.6,25.90,North,0,10.1,10.1,12,0.00,,---,0.00,VWS V14.01,2013-06-12 00:52:00,
2013-06-11 17:57:00,70.5,15.5,25.90,North,0,10.1,10.1,12,0.00,,---,0.00,VWS V14.01,2013-06-12 00:57:00,
2013-06-11 18:02:00,70.2,15.2,25.90,North,0,10.1,10.1,12,0.00,,---,0.00,VWS V14.01,2013-06-12 01:02:00,
2013-06-11 18:07:00,69.4,14.6,25.90,North,0,10.1,10.1,12,0.00,,---,0.00,VWS V14.01,2013-06-12 01:07:00,
2013-06-11 18:12:00,70.0,15.1,25.90,North,0,10.1,10.1,12,0.00,,---,0.00,VWS V14.01,2013-06-12 01:12:00,
2013-06-11 18:17:00,69.3,14.5,25.90,North,0,10.1,10.1,12,0.00,,---,0.00,VWS V14.01,2013-06-12 01:17:00,
2013-06-11 18:22:00,69.8,14.9,25.90,North,0,10.1,10.1,12,0.00,,---,0.00,VWS V14.01,2013-06-12 01:22:00,
2013-06-11 18:27:00,69.4,14.6,25.90,North,0,10.1,10.1,12,0.00,,---,0.00,VWS V14.01,2013-06-12 01:27:00,
2013-06-11 18:32:00,69.3,14.5,25.90,North,0,10.1,10.1,12,0.00,,---,0.00,VWS V14.01,2013-06-12 01:32:00,
2013-06-11 18:37:00,68.7,14.1,25.90,North,0,10.1,10.1,12,0.00,,---,0.00,VWS V14.01,2013-06-12 01:37:00,
2013-06-11 18:42:00,68.0,13.5,25.93,North,0,10.1,10.1,12,0.00,,---,0.00,VWS V14.01,2013-06-12 01:42:00,
2013-06-11 18:47:00,67.8,13.4,25.93,North,0,10.1,10.1,12,0.00,,---,0.00,VWS V14.01,2013-06-12 01:47:00,
2013-06-11 18:52:00,67.8,13.4,25.93,North,0,10.1,10.1,12,0.00,,---,0.00,VWS V14.01,2013-06-12 01:52:00,
2013-06-11 18:57:00,67.3,13.0,25.93,North,0,10.1,10.1,12,0.00,,---,0.00,VWS V14.01,2013-06-12 01:57:00,
2013-06-11 19:02:00,64.4,12.5,25.93,North,0,10.1,10.1,13,0.00,,---,0.00,VWS V14.01,2013-06-12 02:02:00,
2013-06-11 19:07:00,57.7,8.9,25.93,North,0,10.1,10.1,14,0.00,,---,0.00,VWS V14.01,2013-06-12 02:07:00,
2013-06-11 19:12:00,56.5,9.4,25.93,North,0,10.1,10.1,15,0.00,,---,0.00,VWS V14.01,2013-06-12 02:12:00,
2013-06-11 19:17:00,55.2,8.4,25.93,North,0,10.1,10.1,15,0.00,,---,0.00,VWS V14.01,2013-06-12 02:17:00,
2013-06-11 19:22:00,54.0,11.4,25.93,North,0,10.1,10.1,18,0.00,,---,0.00,VWS V14.01,2013-06-12 02:22:00,
2013-06-11 19:27:00,52.9,14.0,25.93,North,0,10.1,10.1,21,0.00,,---,0.00,VWS V14.01,2013-06-12 02:27:00,
2013-06-11 19:32:00,52.5,13.7,25.93,North,0,10.1,10.1,21,0.00,,---,0.00,VWS V14.01,2013-06-12 02:32:00,
2013-06-11 19:37:00,52.3,13.6,25.93,North,0,10.1,10.1,21,0.00,,---,0.00,VWS V14.01,2013-06-12 02:37:00,
2013-06-11 19:42:00,52.0,15.4,25.93,North,0,10.1,10.1,23,0.00,,---,0.00,VWS V14.01,2013-06-12 02:42:00,
2013-06-11 19:47:00,51.6,16.0,25.93,North,0,10.1,10.1,24,0.00,,---,0.00,VWS V14.01,2013-06-12 02:47:00,
2013-06-11 19:52:00,51.3,17.6,25.93,North,0,10.1,10.1,26,0.00,,---,0.00,VWS V14.01,2013-06-12 02:52:00,
2013-06-11 19:57:00,50.7,17.1,25.96,North,0,10.1,10.1,26,0.00,,---,0.00,VWS V14.01,2013-06-12 02:57:00,
2013-06-11 20:02:00,50.5,17.0,25.96,North,0,10.1,10.1,26,0.00,,---,0.00,VWS V14.01,2013-06-12 03:02:00,
2013-06-11 20:07:00,50.2,16.6,25.96,North,0,10.1,10.1,26,0.00,,---,0.00,VWS V14.01,2013-06-12 03:07:00,
2013-06-11 20:12:00,49.8,17.2,25.96,North,0,10.1,10.1,27,0.00,,---,0.00,VWS V14.01,2013-06-12 03:12:00,
2013-06-11 20:17:00,49.1,16.6,25.96,North,0,10.1,10.1,27,0.00,,---,0.00,VWS V14.01,2013-06-12 03:17:00,
2013-06-11 20:22:00,48.7,16.3,25.96,North,0,10.1,10.1,27,0.00,,---,0.00,VWS V14.01,2013-06-12 03:22:00,
2013-06-11 20:27:00,48.2,16.6,25.96,North,0,10.1,10.1,28,0.00,,---,0.00,VWS V14.01,2013-06-12 03:27:00,
2013-06-11 20:32:00,47.8,16.3,25.96,North,0,10.1,10.1,28,0.00,,---,0.00,VWS V14.01,2013-06-12 03:32:00,
2013-06-11 20:37:00,47.3,15.9,25.96,North,0,10.1,10.1,28,0.00,,---,0.00,VWS V14.01,2013-06-12 03:37:00,
2013-06-11 20:42:00,46.6,16.8,25.96,North,0,10.1,10.1,30,0.00,,---,0.00,VWS V14.01,2013-06-12 03:42:00,
2013-06-11 20:47:00,46.2,16.5,25.96,North,0,10.1,10.1,30,0.00,,---,0.00,VWS V14.01,2013-06-12 03:47:00,
2013-06-11 20:52:00,46.0,17.1,25.96,North,0,10.1,10.1,31,0.00,,---,0.00,VWS V14.01,2013-06-12 03:52:00,
2013-06-11 20:57:00,45.3,16.5,25.96,North,0,10.1,10.1,31,0.00,,---,0.00,VWS V14.01,2013-06-12 03:57:00,
2013-06-11 21:01:00,45.3,17.9,25.96,North,0,10.1,10.1,33,0.00,,---,0.00,VWS V14.01,2013-06-12 04:01:00,
2013-06-11 21:02:00,45.1,17.1,25.96,North,0,10.1,10.1,32,0.00,,---,0.00,VWS V14.01,2013-06-12 04:02:00,
2013-06-11 21:07:00,44.6,17.3,25.96,North,0,10.1,10.1,33,0.00,,---,0.00,VWS V14.01,2013-06-12 04:07:00,
2013-06-11 21:12:00,44.1,16.8,25.96,North,0,10.1,10.1,33,0.00,,---,0.00,VWS V14.01,2013-06-12 04:12:00,
2013-06-11 21:17:00,44.1,16.8,25.96,North,0,10.1,10.1,33,0.00,,---,0.00,VWS V14.01,2013-06-12 04:17:00,
2013-06-11 21:22:00,43.9,17.4,25.96,North,0,10.1,10.1,34,0.00,,---,0.00,VWS V14.01,2013-06-12 04:22:00,
2013-06-11 21:27:00,44.2,20.3,25.96,North,0,10.1,10.1,38,0.00,,---,0.00,VWS V14.01,2013-06-12 04:27:00,
2013-06-11 21:32:00,43.5,18.4,25.96,North,0,10.1,10.1,36,0.00,,---,0.00,VWS V14.01,2013-06-12 04:32:00,
2013-06-11 21:37:00,43.3,19.5,25.96,North,0,10.1,10.1,38,0.00,,---,0.00,VWS V14.01,2013-06-12 04:37:00,
2013-06-11 21:42:00,42.8,19.6,25.99,North,0,10.1,10.1,39,0.00,,---,0.00,VWS V14.01,2013-06-12 04:42:00,
2013-06-11 21:47:00,42.6,19.4,25.99,North,0,10.1,10.1,39,0.00,,---,0.00,VWS V14.01,2013-06-12 04:47:00,
2013-06-11 21:52:00,42.4,19.2,25.99,North,0,10.1,10.1,39,0.00,,---,0.00,VWS V14.01,2013-06-12 04:52:00,
2013-06-11 21:57:00,42.6,20.0,25.99,North,0,10.1,10.1,40,0.00,,---,0.00,VWS V14.01,2013-06-12 04:57:00,
2013-06-11 22:02:00,42.6,20.0,25.99,North,0,10.1,10.1,40,0.00,,---,0.00,VWS V14.01,2013-06-12 05:02:00,
2013-06-11 22:07:00,42.4,19.2,25.99,North,0,10.1,10.1,39,0.00,,---,0.00,VWS V14.01,2013-06-12 05:07:00,
2013-06-11 22:12:00,42.4,19.8,25.99,North,0,10.1,10.1,40,0.00,,---,0.00,VWS V14.01,2013-06-12 05:12:00,
2013-06-11 22:17:00,42.4,19.2,25.99,North,0,10.1,10.1,39,0.00,,---,0.00,VWS V14.01,2013-06-12 05:17:00,
2013-06-11 22:22:00,42.3,19.1,25.99,North,0,10.1,10.1,39,0.00,,---,0.00,VWS V14.01,2013-06-12 05:22:00,
2013-06-11 22:27:00,42.3,19.1,25.99,North,0,10.1,10.1,39,0.00,,---,0.00,VWS V14.01,2013-06-12 05:27:00,
2013-06-11 22:32:00,42.4,19.2,25.99,North,0,10.1,10.1,39,0.00,,---,0.00,VWS V14.01,2013-06-12 05:32:00,
2013-06-11 22:37:00,42.1,18.9,25.99,North,0,10.1,10.1,39,0.00,,---,0.00,VWS V14.01,2013-06-12 05:37:00,
2013-06-11 22:42:00,41.9,18.8,25.99,North,0,10.1,10.1,39,0.00,,---,0.00,VWS V14.01,2013-06-12 05:42:00,
2013-06-11 22:47:00,42.1,19.5,25.99,North,0,10.1,10.1,40,0.00,,---,0.00,VWS V14.01,2013-06-12 05:47:00,
2013-06-11 22:52:00,41.9,19.4,25.99,North,0,10.1,10.1,40,0.00,,---,0.00,VWS V14.01,2013-06-12 05:52:00,
2013-06-11 22:57:00,41.7,18.6,25.99,North,0,10.1,10.1,39,0.00,,---,0.00,VWS V14.01,2013-06-12 05:57:00,
2013-06-11 23:02:00,41.7,18.6,25.99,North,0,10.1,10.1,39,0.00,,---,0.00,VWS V14.01,2013-06-12 06:02:00,
2013-06-11 23:07:00,41.7,19.2,25.99,North,0,10.1,10.1,40,0.00,,---,0.00,VWS V14.01,2013-06-12 06:07:00,
2013-06-11 23:12:00,41.5,19.0,25.99,North,0,10.1,10.1,40,0.00,,---,0.00,VWS V14.01,2013-06-12 06:12:00,
2013-06-11 23:17:00,41.5,19.0,25.99,North,0,10.1,10.1,40,0.00,,---,0.00,VWS V14.01,2013-06-12 06:17:00,
2013-06-11 23:22:00,41.5,19.0,25.99,North,0,10.1,10.1,40,0.00,,---,0.00,VWS V14.01,2013-06-12 06:22:00,
2013-06-11 23:27:00,41.5,19.6,25.99,North,0,10.1,10.1,41,0.00,,---,0.00,VWS V14.01,2013-06-12 06:27:00,
2013-06-11 23:32:00,41.2,18.7,25.99,North,0,10.1,10.1,40,0.00,,---,0.00,VWS V14.01,2013-06-12 06:32:00,
2013-06-11 23:37:00,41.2,18.7,25.99,North,0,10.1,10.1,40,0.00,,---,0.00,VWS V14.01,2013-06-12 06:37:00,
2013-06-11 23:42:00,41.0,19.1,25.99,North,0,10.1,10.1,41,0.00,,---,0.00,VWS V14.01,2013-06-12 06:42:00,
2013-06-11 23:47:00,41.2,18.7,25.99,North,0,10.1,10.1,40,0.00,,---,0.00,VWS V14.01,2013-06-12 06:47:00,
2013-06-11 23:52:00,41.0,19.1,25.99,North,0,10.1,10.1,41,0.00,,---,0.00,VWS V14.01,2013-06-12 06:52:00,
2013-06-11 23:57:00,40.8,19.5,25.99,North,0,10.1,10.1,42,0.00,,---,0.00,VWS V14.01,2013-06-12 06:57:00,